sensor_id;sensor_type;location;lat;lon;timestamp;pressure;altitude;pressure_sealevel;temperature;humidity
24752;BME280;27246;52.376;4.628;2023-08-08T00:02:10;101255.19;;;17.55;71.52
24752;BME280;27246;52.376;4.628;2023-08-08T00:07:11;101248.34;;;17.51;72.08
24752;BME280;27246;52.376;4.628;2023-08-08T00:12:14;101249.84;;;17.54;70.80
24752;BME280;27246;52.376;4.628;2023-08-08T00:17:16;101249.63;;;17.55;70.46
24752;BME280;27246;52.376;4.628;2023-08-08T00:22:19;101252.59;;;17.54;69.53
24752;BME280;27246;52.376;4.628;2023-08-08T00:27:23;101248.31;;;17.58;69.02
24752;BME280;27246;52.376;4.628;2023-08-08T00:32:25;101242.75;;;17.58;69.62
24752;BME280;27246;52.376;4.628;2023-08-08T00:37:27;101241.69;;;17.66;70.42
24752;BME280;27246;52.376;4.628;2023-08-08T00:42:29;101237.84;;;17.60;70.53
24752;BME280;27246;52.376;4.628;2023-08-08T00:47:37;101239.13;;;17.57;70.48
24752;BME280;27246;52.376;4.628;2023-08-08T00:52:40;101243.19;;;17.68;68.71
24752;BME280;27246;52.376;4.628;2023-08-08T00:57:43;101244.47;;;17.72;65.67
24752;BME280;27246;52.376;4.628;2023-08-08T01:02:45;101245.53;;;17.65;64.29
24752;BME280;27246;52.376;4.628;2023-08-08T01:08:05;101233.34;;;17.59;64.87
24752;BME280;27246;52.376;4.628;2023-08-08T01:13:21;101238.06;;;17.58;65.81
24752;BME280;27246;52.376;4.628;2023-08-08T01:18:24;101235.06;;;17.53;66.07
24752;BME280;27246;52.376;4.628;2023-08-08T01:23:46;101241.47;;;17.54;67.22
24752;BME280;27246;52.376;4.628;2023-08-08T01:28:53;101229.72;;;17.58;67.37
24752;BME280;27246;52.376;4.628;2023-08-08T01:33:57;101232.28;;;17.53;68.91
24752;BME280;27246;52.376;4.628;2023-08-08T01:39:00;101220.06;;;17.68;69.67
24752;BME280;27246;52.376;4.628;2023-08-08T01:44:06;101216.66;;;17.52;69.24
24752;BME280;27246;52.376;4.628;2023-08-08T01:49:08;101214.75;;;17.46;69.43
24752;BME280;27246;52.376;4.628;2023-08-08T01:54:10;101218.38;;;17.47;67.30
24752;BME280;27246;52.376;4.628;2023-08-08T01:59:12;101201.72;;;17.33;65.37
24752;BME280;27246;52.376;4.628;2023-08-08T02:04:16;101205.13;;;17.42;66.04
24752;BME280;27246;52.376;4.628;2023-08-08T02:09:18;101206.41;;;17.33;65.08
24752;BME280;27246;52.376;4.628;2023-08-08T02:14:22;101207.91;;;17.29;66.74
24752;BME280;27246;52.376;4.628;2023-08-08T02:19:24;101194.66;;;17.24;67.67
24752;BME280;27246;52.376;4.628;2023-08-08T02:24:27;101196.13;;;17.27;68.30
24752;BME280;27246;52.376;4.628;2023-08-08T02:29:30;101196.78;;;17.29;68.63
24752;BME280;27246;52.376;4.628;2023-08-08T02:34:34;101193.16;;;17.22;68.29
24752;BME280;27246;52.376;4.628;2023-08-08T02:39:35;101188.03;;;17.25;68.13
24752;BME280;27246;52.376;4.628;2023-08-08T02:44:37;101183.31;;;17.12;67.20
24752;BME280;27246;52.376;4.628;2023-08-08T02:49:39;101190.16;;;17.10;64.86
24752;BME280;27246;52.376;4.628;2023-08-08T02:54:41;101187.59;;;17.08;64.36
24752;BME280;27246;52.376;4.628;2023-08-08T02:59:42;101180.34;;;17.07;63.98
24752;BME280;27246;52.376;4.628;2023-08-08T03:04:45;101178.41;;;17.01;64.15
24752;BME280;27246;52.376;4.628;2023-08-08T03:09:46;101170.06;;;17.01;65.27
24752;BME280;27246;52.376;4.628;2023-08-08T03:14:49;101161.72;;;17.01;65.83
24752;BME280;27246;52.376;4.628;2023-08-08T03:19:50;101176.03;;;16.98;65.87
24752;BME280;27246;52.376;4.628;2023-08-08T03:24:53;101155.94;;;16.96;65.94
24752;BME280;27246;52.376;4.628;2023-08-08T03:29:58;101156.16;;;16.88;65.64
24752;BME280;27246;52.376;4.628;2023-08-08T03:35:01;101151.25;;;17.03;65.96
24752;BME280;27246;52.376;4.628;2023-08-08T03:40:04;101154.47;;;16.93;66.07
24752;BME280;27246;52.376;4.628;2023-08-08T03:45:07;101148.25;;;16.98;67.57
24752;BME280;27246;52.376;4.628;2023-08-08T03:50:09;101143.97;;;16.95;69.32
24752;BME280;27246;52.376;4.628;2023-08-08T03:55:12;101149.09;;;16.98;69.47
24752;BME280;27246;52.376;4.628;2023-08-08T04:00:14;101147.41;;;16.97;69.12
24752;BME280;27246;52.376;4.628;2023-08-08T04:05:16;101150.59;;;17.08;69.38
24752;BME280;27246;52.376;4.628;2023-08-08T04:10:18;101141.41;;;16.87;68.66
24752;BME280;27246;52.376;4.628;2023-08-08T04:15:20;101142.28;;;16.81;68.62
24752;BME280;27246;52.376;4.628;2023-08-08T04:20:22;101136.25;;;16.71;67.54
24752;BME280;27246;52.376;4.628;2023-08-08T04:25:24;101140.50;;;16.73;67.52
24752;BME280;27246;52.376;4.628;2023-08-08T04:30:25;101139.22;;;16.76;67.92
24752;BME280;27246;52.376;4.628;2023-08-08T04:35:27;101134.06;;;16.66;66.00
24752;BME280;27246;52.376;4.628;2023-08-08T04:40:29;101145.19;;;16.66;66.66
24752;BME280;27246;52.376;4.628;2023-08-08T04:45:31;101148.19;;;16.65;66.68
24752;BME280;27246;52.376;4.628;2023-08-08T04:50:32;101139.63;;;16.66;66.12
24752;BME280;27246;52.376;4.628;2023-08-08T04:55:35;101156.72;;;16.63;65.54
24752;BME280;27246;52.376;4.628;2023-08-08T05:00:37;101156.28;;;16.66;66.23
24752;BME280;27246;52.376;4.628;2023-08-08T05:05:39;101159.72;;;16.62;66.29
24752;BME280;27246;52.376;4.628;2023-08-08T05:10:41;101156.72;;;16.56;67.42
24752;BME280;27246;52.376;4.628;2023-08-08T05:15:42;101151.19;;;16.56;68.71
24752;BME280;27246;52.376;4.628;2023-08-08T05:20:44;101147.13;;;16.66;69.70
24752;BME280;27246;52.376;4.628;2023-08-08T05:25:46;101151.59;;;16.60;68.39
24752;BME280;27246;52.376;4.628;2023-08-08T05:30:47;101154.16;;;16.68;67.82
24752;BME280;27246;52.376;4.628;2023-08-08T05:35:49;101154.41;;;16.80;68.12
24752;BME280;27246;52.376;4.628;2023-08-08T05:40:51;101153.81;;;16.85;67.20
24752;BME280;27246;52.376;4.628;2023-08-08T05:45:53;101155.06;;;16.82;67.48
24752;BME280;27246;52.376;4.628;2023-08-08T05:50:56;101156.59;;;16.85;66.98
24752;BME280;27246;52.376;4.628;2023-08-08T05:56:00;101155.06;;;16.82;67.17
24752;BME280;27246;52.376;4.628;2023-08-08T06:01:02;101156.34;;;16.86;67.96
24752;BME280;27246;52.376;4.628;2023-08-08T06:06:07;101156.38;;;16.93;67.21
24752;BME280;27246;52.376;4.628;2023-08-08T06:11:09;101161.50;;;17.09;66.97
24752;BME280;27246;52.376;4.628;2023-08-08T06:16:11;101160.66;;;17.02;68.00
24752;BME280;27246;52.376;4.628;2023-08-08T06:21:14;101165.13;;;17.16;68.33
24752;BME280;27246;52.376;4.628;2023-08-08T06:26:16;101170.47;;;16.98;68.46
24752;BME280;27246;52.376;4.628;2023-08-08T06:31:19;101164.28;;;17.03;70.45
24752;BME280;27246;52.376;4.628;2023-08-08T06:36:22;101165.34;;;17.08;70.10
24752;BME280;27246;52.376;4.628;2023-08-08T06:41:24;101165.56;;;17.00;69.15
24752;BME280;27246;52.376;4.628;2023-08-08T06:46:25;101167.72;;;17.11;69.68
24752;BME280;27246;52.376;4.628;2023-08-08T06:51:27;101168.78;;;17.17;69.02
24752;BME280;27246;52.376;4.628;2023-08-08T06:56:29;101161.94;;;17.26;69.90
24752;BME280;27246;52.376;4.628;2023-08-08T07:01:31;101166.22;;;17.15;71.31
24752;BME280;27246;52.376;4.628;2023-08-08T07:06:34;101162.13;;;17.25;71.75
24752;BME280;27246;52.376;4.628;2023-08-08T07:11:36;101170.06;;;17.21;73.15
24752;BME280;27246;52.376;4.628;2023-08-08T07:16:39;101164.50;;;17.28;71.63
24752;BME280;27246;52.376;4.628;2023-08-08T07:21:41;101167.06;;;17.23;71.52
24752;BME280;27246;52.376;4.628;2023-08-08T07:26:42;101160.00;;;17.33;71.04
24752;BME280;27246;52.376;4.628;2023-08-08T07:31:44;101169.63;;;17.31;70.31
24752;BME280;27246;52.376;4.628;2023-08-08T07:36:47;101163.00;;;17.45;70.15
24752;BME280;27246;52.376;4.628;2023-08-08T07:41:48;101158.06;;;17.54;70.89
24752;BME280;27246;52.376;4.628;2023-08-08T07:46:50;101156.28;;;17.73;71.22
24752;BME280;27246;52.376;4.628;2023-08-08T07:51:52;101154.38;;;17.73;68.82
24752;BME280;27246;52.376;4.628;2023-08-08T07:56:54;101148.06;;;18.05;68.00
24752;BME280;27246;52.376;4.628;2023-08-08T08:01:55;101151.44;;;18.20;66.58
24752;BME280;27246;52.376;4.628;2023-08-08T08:06:57;101160.88;;;18.19;67.55
24752;BME280;27246;52.376;4.628;2023-08-08T08:11:59;101141.25;;;18.01;68.28
24752;BME280;27246;52.376;4.628;2023-08-08T08:17:01;101149.31;;;18.15;66.42
24752;BME280;27246;52.376;4.628;2023-08-08T08:22:04;101144.00;;;18.46;65.78
24752;BME280;27246;52.376;4.628;2023-08-08T08:27:06;101146.88;;;18.32;66.46
24752;BME280;27246;52.376;4.628;2023-08-08T08:32:08;101154.50;;;18.12;66.82
24752;BME280;27246;52.376;4.628;2023-08-08T08:37:10;101144.00;;;18.46;67.18
24752;BME280;27246;52.376;4.628;2023-08-08T08:42:13;101156.25;;;18.45;65.65
24752;BME280;27246;52.376;4.628;2023-08-08T08:47:19;101156.91;;;18.40;66.05
24752;BME280;27246;52.376;4.628;2023-08-08T08:52:21;101157.13;;;18.38;65.81
24752;BME280;27246;52.376;4.628;2023-08-08T08:57:24;101154.22;;;18.58;65.55
24752;BME280;27246;52.376;4.628;2023-08-08T09:02:26;101174.31;;;18.67;65.28
24752;BME280;27246;52.376;4.628;2023-08-08T09:07:29;101180.31;;;18.71;64.98
24752;BME280;27246;52.376;4.628;2023-08-08T09:12:35;101162.34;;;18.60;66.33
24752;BME280;27246;52.376;4.628;2023-08-08T09:17:42;101177.09;;;18.67;64.20
24752;BME280;27246;52.376;4.628;2023-08-08T09:22:51;101178.66;;;18.95;64.35
24752;BME280;27246;52.376;4.628;2023-08-08T09:27:54;101183.84;;;18.91;63.82
24752;BME280;27246;52.376;4.628;2023-08-08T09:32:58;101168.25;;;18.77;63.74
24752;BME280;27246;52.376;4.628;2023-08-08T09:38:00;101198.25;;;18.82;63.91
24752;BME280;27246;52.376;4.628;2023-08-08T09:43:02;101178.56;;;18.76;65.07
24752;BME280;27246;52.376;4.628;2023-08-08T09:48:06;101183.91;;;19.10;63.87
24752;BME280;27246;52.376;4.628;2023-08-08T09:53:08;101180.66;;;19.38;63.73
24752;BME280;27246;52.376;4.628;2023-08-08T09:58:11;101174.69;;;19.34;62.77
24752;BME280;27246;52.376;4.628;2023-08-08T10:03:13;101180.22;;;19.16;63.14
24752;BME280;27246;52.376;4.628;2023-08-08T10:08:16;101168.91;;;19.11;63.61
24752;BME280;27246;52.376;4.628;2023-08-08T10:13:27;101177.88;;;19.13;63.42
24752;BME280;27246;52.376;4.628;2023-08-08T10:18:29;101175.13;;;19.06;63.60
24752;BME280;27246;52.376;4.628;2023-08-08T10:23:37;101175.88;;;19.45;64.62
24752;BME280;27246;52.376;4.628;2023-08-08T10:28:39;101171.25;;;19.57;63.74
24752;BME280;27246;52.376;4.628;2023-08-08T10:33:41;101178.88;;;19.87;64.48
24752;BME280;27246;52.376;4.628;2023-08-08T10:38:49;101172.47;;;19.43;64.69
24752;BME280;27246;52.376;4.628;2023-08-08T10:43:57;101182.81;;;19.36;64.73
24752;BME280;27246;52.376;4.628;2023-08-08T10:49:00;101186.81;;;19.22;65.75
24752;BME280;27246;52.376;4.628;2023-08-08T10:54:06;101178.09;;;19.62;64.73
24752;BME280;27246;52.376;4.628;2023-08-08T10:59:35;101183.88;;;19.60;64.80
24752;BME280;27246;52.376;4.628;2023-08-08T11:04:38;101182.09;;;19.47;63.75
24752;BME280;27246;52.376;4.628;2023-08-08T11:09:39;101176.88;;;19.51;63.98
24752;BME280;27246;52.376;4.628;2023-08-08T11:14:41;101186.66;;;19.85;62.54
24752;BME280;27246;52.376;4.628;2023-08-08T11:19:43;101187.13;;;19.82;64.36
24752;BME280;27246;52.376;4.628;2023-08-08T11:24:45;101179.22;;;20.16;62.41
24752;BME280;27246;52.376;4.628;2023-08-08T11:29:50;101187.91;;;20.26;61.77
24752;BME280;27246;52.376;4.628;2023-08-08T11:34:52;101187.91;;;20.08;60.06
24752;BME280;27246;52.376;4.628;2023-08-08T11:39:54;101184.38;;;20.31;60.84
24752;BME280;27246;52.376;4.628;2023-08-08T11:44:57;101202.72;;;20.08;61.83
24752;BME280;27246;52.376;4.628;2023-08-08T11:49:59;101195.09;;;19.97;60.73
24752;BME280;27246;52.376;4.628;2023-08-08T11:55:02;101188.47;;;20.47;60.04
24752;BME280;27246;52.376;4.628;2023-08-08T12:00:09;101186.72;;;20.83;58.86
24752;BME280;27246;52.376;4.628;2023-08-08T12:05:14;101187.03;;;20.56;60.63
24752;BME280;27246;52.376;4.628;2023-08-08T12:10:23;101179.75;;;20.25;61.00
24752;BME280;27246;52.376;4.628;2023-08-08T12:15:30;101190.53;;;20.21;62.70
24752;BME280;27246;52.376;4.628;2023-08-08T12:20:32;101200.13;;;20.44;61.14
24752;BME280;27246;52.376;4.628;2023-08-08T12:25:38;101185.00;;;20.33;61.37
24752;BME280;27246;52.376;4.628;2023-08-08T12:30:40;101189.09;;;21.09;61.12
24752;BME280;27246;52.376;4.628;2023-08-08T12:35:42;101201.38;;;20.29;59.29
24752;BME280;27246;52.376;4.628;2023-08-08T12:40:44;101194.66;;;20.67;59.02
24752;BME280;27246;52.376;4.628;2023-08-08T12:45:46;101198.34;;;20.80;57.57
24752;BME280;27246;52.376;4.628;2023-08-08T12:50:49;101207.53;;;20.98;56.99
24752;BME280;27246;52.376;4.628;2023-08-08T12:55:51;101204.78;;;20.80;56.37
24752;BME280;27246;52.376;4.628;2023-08-08T13:00:53;101208.50;;;20.62;58.50
24752;BME280;27246;52.376;4.628;2023-08-08T13:05:54;101215.50;;;20.34;59.59
24752;BME280;27246;52.376;4.628;2023-08-08T13:10:56;101220.22;;;20.34;60.38
24752;BME280;27246;52.376;4.628;2023-08-08T13:15:59;101210.59;;;20.30;60.03
24752;BME280;27246;52.376;4.628;2023-08-08T13:21:00;101208.06;;;20.28;59.06
24752;BME280;27246;52.376;4.628;2023-08-08T13:26:02;101206.97;;;19.92;60.49
24752;BME280;27246;52.376;4.628;2023-08-08T13:31:06;101194.25;;;19.96;60.93
24752;BME280;27246;52.376;4.628;2023-08-08T13:36:08;101212.63;;;20.41;61.19
24752;BME280;27246;52.376;4.628;2023-08-08T13:41:11;101211.91;;;20.64;58.53
24752;BME280;27246;52.376;4.628;2023-08-08T13:46:12;101211.38;;;20.37;58.05
24752;BME280;27246;52.376;4.628;2023-08-08T13:51:14;101222.09;;;20.22;59.87
24752;BME280;27246;52.376;4.628;2023-08-08T13:56:17;101216.06;;;20.06;60.04
24752;BME280;27246;52.376;4.628;2023-08-08T14:01:19;101227.13;;;19.76;60.88
24752;BME280;27246;52.376;4.628;2023-08-08T14:06:21;101210.94;;;20.03;60.70
24752;BME280;27246;52.376;4.628;2023-08-08T14:11:22;101202.09;;;20.25;58.38
24752;BME280;27246;52.376;4.628;2023-08-08T14:16:24;101208.09;;;20.10;59.37
24752;BME280;27246;52.376;4.628;2023-08-08T14:21:26;101204.09;;;20.36;59.79
24752;BME280;27246;52.376;4.628;2023-08-08T14:26:29;101185.47;;;20.48;59.19
24752;BME280;27246;52.376;4.628;2023-08-08T14:31:31;101196.59;;;20.18;59.40
24752;BME280;27246;52.376;4.628;2023-08-08T14:36:40;101196.44;;;19.94;60.64
24752;BME280;27246;52.376;4.628;2023-08-08T14:41:43;101190.06;;;19.87;61.04
24752;BME280;27246;52.376;4.628;2023-08-08T14:46:44;101204.81;;;20.13;60.96
24752;BME280;27246;52.376;4.628;2023-08-08T14:51:46;101210.88;;;20.10;59.79
24752;BME280;27246;52.376;4.628;2023-08-08T14:56:48;101209.84;;;20.04;61.72
24752;BME280;27246;52.376;4.628;2023-08-08T15:01:50;101205.25;;;19.91;61.68
24752;BME280;27246;52.376;4.628;2023-08-08T15:06:51;101203.31;;;19.73;62.49
24752;BME280;27246;52.376;4.628;2023-08-08T15:11:53;101197.91;;;19.97;62.27
24752;BME280;27246;52.376;4.628;2023-08-08T15:16:55;101211.19;;;20.20;60.61
24752;BME280;27246;52.376;4.628;2023-08-08T15:21:58;101204.28;;;19.86;58.26
24752;BME280;27246;52.376;4.628;2023-08-08T15:27:00;101184.16;;;19.77;58.69
24752;BME280;27246;52.376;4.628;2023-08-08T15:32:04;101183.03;;;19.59;58.65
24752;BME280;27246;52.376;4.628;2023-08-08T15:37:06;101172.41;;;19.50;59.81
24752;BME280;27246;52.376;4.628;2023-08-08T15:42:09;101177.53;;;19.28;61.74
24752;BME280;27246;52.376;4.628;2023-08-08T15:47:11;101179.16;;;19.10;60.49
24752;BME280;27246;52.376;4.628;2023-08-08T15:52:13;101183.84;;;19.16;60.59
24752;BME280;27246;52.376;4.628;2023-08-08T15:57:16;101195.97;;;19.04;59.61
24752;BME280;27246;52.376;4.628;2023-08-08T16:02:18;101172.34;;;19.06;59.00
24752;BME280;27246;52.376;4.628;2023-08-08T16:07:21;101176.16;;;19.12;59.56
24752;BME280;27246;52.376;4.628;2023-08-08T16:12:23;101168.16;;;18.97;58.83
24752;BME280;27246;52.376;4.628;2023-08-08T16:17:25;101171.78;;;18.97;59.99
24752;BME280;27246;52.376;4.628;2023-08-08T16:22:26;101168.69;;;18.81;61.54
24752;BME280;27246;52.376;4.628;2023-08-08T16:27:28;101167.00;;;18.73;62.18
24752;BME280;27246;52.376;4.628;2023-08-08T16:32:30;101163.59;;;18.71;63.01
24752;BME280;27246;52.376;4.628;2023-08-08T16:37:32;101161.22;;;18.74;63.65
24752;BME280;27246;52.376;4.628;2023-08-08T16:42:35;101159.81;;;18.58;64.81
24752;BME280;27246;52.376;4.628;2023-08-08T16:47:36;101149.91;;;18.63;65.15
24752;BME280;27246;52.376;4.628;2023-08-08T16:52:38;101148.25;;;18.55;65.62
24752;BME280;27246;52.376;4.628;2023-08-08T16:57:40;101152.56;;;18.51;64.52
24752;BME280;27246;52.376;4.628;2023-08-08T17:02:42;101142.16;;;18.33;64.59
24752;BME280;27246;52.376;4.628;2023-08-08T17:07:45;101153.03;;;18.41;66.65
24752;BME280;27246;52.376;4.628;2023-08-08T17:12:47;101145.78;;;18.33;67.94
24752;BME280;27246;52.376;4.628;2023-08-08T17:17:50;101137.53;;;18.20;64.83
24752;BME280;27246;52.376;4.628;2023-08-08T17:22:52;101149.03;;;18.30;65.69
24752;BME280;27246;52.376;4.628;2023-08-08T17:27:54;101142.22;;;18.26;66.22
24752;BME280;27246;52.376;4.628;2023-08-08T17:32:56;101153.16;;;18.21;65.75
24752;BME280;27246;52.376;4.628;2023-08-08T17:37:58;101151.53;;;17.93;70.47
24752;BME280;27246;52.376;4.628;2023-08-08T17:43:00;101155.38;;;17.99;71.98
24752;BME280;27246;52.376;4.628;2023-08-08T17:48:01;101143.19;;;17.93;72.94
24752;BME280;27246;52.376;4.628;2023-08-08T17:53:04;101142.38;;;17.86;72.57
24752;BME280;27246;52.376;4.628;2023-08-08T17:58:07;101140.88;;;17.70;72.56
24752;BME280;27246;52.376;4.628;2023-08-08T18:03:09;101135.75;;;17.74;72.67
24752;BME280;27246;52.376;4.628;2023-08-08T18:08:11;101127.19;;;17.75;74.15
24752;BME280;27246;52.376;4.628;2023-08-08T18:13:14;101118.19;;;17.80;76.92
24752;BME280;27246;52.376;4.628;2023-08-08T18:18:16;101107.72;;;17.75;79.29
24752;BME280;27246;52.376;4.628;2023-08-08T18:23:18;101106.22;;;17.73;79.39
24752;BME280;27246;52.376;4.628;2023-08-08T18:28:20;101105.56;;;17.71;80.80
24752;BME280;27246;52.376;4.628;2023-08-08T18:33:22;101101.31;;;17.68;80.92
24752;BME280;27246;52.376;4.628;2023-08-08T18:38:24;101118.03;;;17.62;80.03
24752;BME280;27246;52.376;4.628;2023-08-08T18:43:26;101105.63;;;17.51;78.27
24752;BME280;27246;52.376;4.628;2023-08-08T18:48:27;101097.31;;;17.44;76.80
24752;BME280;27246;52.376;4.628;2023-08-08T18:53:29;101087.91;;;17.45;78.28
24752;BME280;27246;52.376;4.628;2023-08-08T18:58:31;101090.47;;;17.53;80.14
24752;BME280;27246;52.376;4.628;2023-08-08T19:03:35;101087.22;;;17.56;82.20
24752;BME280;27246;52.376;4.628;2023-08-08T19:08:38;101083.59;;;17.56;83.54
24752;BME280;27246;52.376;4.628;2023-08-08T19:13:39;101091.09;;;17.49;85.44
24752;BME280;27246;52.376;4.628;2023-08-08T19:18:41;101082.13;;;17.40;86.55
24752;BME280;27246;52.376;4.628;2023-08-08T19:23:43;101093.91;;;17.42;88.09
24752;BME280;27246;52.376;4.628;2023-08-08T19:28:45;101108.22;;;17.39;89.27
24752;BME280;27246;52.376;4.628;2023-08-08T19:33:49;101094.97;;;17.34;89.96
24752;BME280;27246;52.376;4.628;2023-08-08T19:39:07;101089.44;;;17.28;91.27
24752;BME280;27246;52.376;4.628;2023-08-08T19:44:09;101096.94;;;17.20;91.99
24752;BME280;27246;52.376;4.628;2023-08-08T19:49:10;101097.78;;;17.14;92.79
24752;BME280;27246;52.376;4.628;2023-08-08T19:54:13;101082.38;;;17.18;93.49
24752;BME280;27246;52.376;4.628;2023-08-08T19:59:15;101081.13;;;17.21;93.52
24752;BME280;27246;52.376;4.628;2023-08-08T20:04:17;101089.84;;;17.25;93.33
24752;BME280;27246;52.376;4.628;2023-08-08T20:09:19;101085.81;;;17.27;93.55
24752;BME280;27246;52.376;4.628;2023-08-08T20:14:21;101084.53;;;17.30;94.16
24752;BME280;27246;52.376;4.628;2023-08-08T20:19:22;101090.28;;;17.28;94.43
24752;BME280;27246;52.376;4.628;2023-08-08T20:24:24;101095.00;;;17.28;94.43
24752;BME280;27246;52.376;4.628;2023-08-08T20:29:26;101106.13;;;17.28;95.06
24752;BME280;27246;52.376;4.628;2023-08-08T20:34:28;101096.50;;;17.24;95.99
24752;BME280;27246;52.376;4.628;2023-08-08T20:39:32;101072.97;;;17.26;96.66
24752;BME280;27246;52.376;4.628;2023-08-08T20:44:36;101060.13;;;17.32;96.71
24752;BME280;27246;52.376;4.628;2023-08-08T20:49:38;101057.19;;;17.13;96.47
24752;BME280;27246;52.376;4.628;2023-08-08T20:54:39;101061.47;;;17.09;96.92
24752;BME280;27246;52.376;4.628;2023-08-08T20:59:41;101067.03;;;17.09;96.70
24752;BME280;27246;52.376;4.628;2023-08-08T21:04:44;101054.84;;;17.04;96.90
24752;BME280;27246;52.376;4.628;2023-08-08T21:09:46;101056.13;;;17.08;96.72
24752;BME280;27246;52.376;4.628;2023-08-08T21:14:48;101056.53;;;17.11;97.15
24752;BME280;27246;52.376;4.628;2023-08-08T21:19:49;101052.69;;;17.12;97.41
24752;BME280;27246;52.376;4.628;2023-08-08T21:24:54;101066.56;;;17.12;97.56
24752;BME280;27246;52.376;4.628;2023-08-08T21:29:55;101075.38;;;17.09;97.59
24752;BME280;27246;52.376;4.628;2023-08-08T21:34:58;101076.88;;;17.05;97.62
24752;BME280;27246;52.376;4.628;2023-08-08T21:40:00;101077.72;;;16.99;98.06
24752;BME280;27246;52.376;4.628;2023-08-08T21:45:02;101066.19;;;16.95;97.79
24752;BME280;27246;52.376;4.628;2023-08-08T21:50:06;101088.84;;;16.99;98.06
24752;BME280;27246;52.376;4.628;2023-08-08T21:55:08;101091.41;;;16.94;97.35
24752;BME280;27246;52.376;4.628;2023-08-08T22:00:10;101088.63;;;16.87;96.72
24752;BME280;27246;52.376;4.628;2023-08-08T22:05:16;101094.81;;;16.89;97.14
24752;BME280;27246;52.376;4.628;2023-08-08T22:10:18;101095.25;;;16.86;97.25
24752;BME280;27246;52.376;4.628;2023-08-08T22:15:21;101084.13;;;16.86;97.10
24752;BME280;27246;52.376;4.628;2023-08-08T22:20:22;101088.81;;;16.92;96.86
24752;BME280;27246;52.376;4.628;2023-08-08T22:25:24;101088.44;;;16.89;96.73
24752;BME280;27246;52.376;4.628;2023-08-08T22:30:26;101080.09;;;16.89;96.42
24752;BME280;27246;52.376;4.628;2023-08-08T22:35:28;101087.16;;;16.85;96.51
24752;BME280;27246;52.376;4.628;2023-08-08T22:40:30;101083.72;;;16.83;96.61
24752;BME280;27246;52.376;4.628;2023-08-08T22:45:31;101078.16;;;16.83;96.68
24752;BME280;27246;52.376;4.628;2023-08-08T22:50:34;101072.81;;;16.81;96.48
24752;BME280;27246;52.376;4.628;2023-08-08T22:55:37;101078.56;;;16.79;96.62
24752;BME280;27246;52.376;4.628;2023-08-08T23:00:39;101065.53;;;16.73;97.38
24752;BME280;27246;52.376;4.628;2023-08-08T23:05:41;101087.75;;;16.73;97.37
24752;BME280;27246;52.376;4.628;2023-08-08T23:10:43;101082.19;;;16.73;98.17
24752;BME280;27246;52.376;4.628;2023-08-08T23:15:44;101073.44;;;16.76;98.56
24752;BME280;27246;52.376;4.628;2023-08-08T23:20:46;101073.19;;;16.78;98.36
24752;BME280;27246;52.376;4.628;2023-08-08T23:25:51;101082.41;;;16.78;98.31
24752;BME280;27246;52.376;4.628;2023-08-08T23:30:54;101086.88;;;16.79;98.20
24752;BME280;27246;52.376;4.628;2023-08-08T23:35:57;101080.94;;;16.83;98.18
24752;BME280;27246;52.376;4.628;2023-08-08T23:40:59;101080.94;;;16.83;98.07
24752;BME280;27246;52.376;4.628;2023-08-08T23:46:00;101085.84;;;16.80;97.74
24752;BME280;27246;52.376;4.628;2023-08-08T23:51:02;101078.56;;;16.79;97.85
24752;BME280;27246;52.376;4.628;2023-08-08T23:56:06;101078.56;;;16.79;98.00
